Terminal Aerodrome Forecast
Issued by NWS

Home | Current Version | Previous Version | Text Only | Print | Product List | Glossary On
Versions: 1 2 3 4 5 6 7 8 9 10 11 12 13 14
000
FTUS46 KEKA 242300 RRA
TAFUKI
TAF
KUKI 242346Z 2500/2524 26008G15KT P6SM VCSH SCT040 BKN100 OVC200
     FM250300 32005KT P6SM SCT030 BKN120 OVC200
     FM251700 13006KT P6SM VCSH SCT030 BKN120 OVC200=

USA.gov is the U.S. government's official web portal to all federal, state and local government web resources and services.